Time;durP1;ratioP1;P1;durP2;ratioP2;P2;SDS_P1;SDS_P2;PMS_P1;PMS_P2;Temp;Humidity;BMP_temperature;BMP_pressure;BME280_temperature;BME280_humidity;BME280_pressure;Samples;Min_cycle;Max_cycle;Signal;HPM_P1;HPM_P2
2023/04/14 00:00:19;;;;;;;1.58;1.20;;;;;;;14.23;65.06;100819.94;5028738;28;20068;-51
2023/04/14 00:02:45;;;;;;;1.73;1.20;;;;;;;14.23;64.93;100819.09;5025693;28;20050;-50
2023/04/14 00:05:11;;;;;;;2.10;1.30;;;;;;;14.23;64.98;100819.09;5026359;28;20042;-52
2023/04/14 00:07:36;;;;;;;1.30;1.20;;;;;;;14.22;64.59;100828.09;5026041;28;20120;-50
2023/04/14 00:10:01;;;;;;;2.13;1.27;;;;;;;14.23;65.00;100827.13;5025985;28;20033;-52
2023/04/14 00:12:27;;;;;;;2.75;1.35;;;;;;;14.22;64.99;100817.38;5025898;28;20041;-50
2023/04/14 00:14:52;;;;;;;2.58;1.20;;;;;;;14.22;65.13;100817.38;5026004;28;20113;-52
2023/04/14 00:17:17;;;;;;;2.10;1.40;;;;;;;14.21;65.17;100818.38;5025774;28;20108;-50
2023/04/14 00:19:43;;;;;;;1.75;1.17;;;;;;;14.21;65.05;100821.88;5026009;28;20030;-51
2023/04/14 00:22:08;;;;;;;2.38;1.58;;;;;;;14.21;65.09;100823.72;5026188;28;20045;-51
2023/04/14 00:24:39;;;;;;;2.13;1.20;;;;;;;14.20;64.71;100827.34;5025959;28;20440;-51
2023/04/14 00:27:05;;;;;;;1.77;1.25;;;;;;;14.20;64.94;100832.72;5025575;28;20038;-49
2023/04/14 00:29:31;;;;;;;1.15;1.08;;;;;;;14.19;64.52;100826.50;5025556;28;20045;-52
2023/04/14 00:31:56;;;;;;;1.70;1.33;;;;;;;14.19;64.66;100831.88;5026013;28;20037;-51
2023/04/14 00:34:22;;;;;;;1.70;1.30;;;;;;;14.20;64.99;100838.06;5026471;28;20087;-52
2023/04/14 00:36:47;;;;;;;2.80;1.45;;;;;;;14.18;64.65;100824.78;5025476;28;20117;-50
2023/04/14 00:39:12;;;;;;;1.73;1.27;;;;;;;14.19;64.63;100825.66;5026032;28;20064;-48
2023/04/14 00:41:38;;;;;;;1.98;1.38;;;;;;;14.18;65.02;100823.94;5025273;28;20041;-50
2023/04/14 00:44:03;;;;;;;1.40;1.30;;;;;;;14.17;64.57;100822.25;5025221;28;20042;-50
2023/04/14 00:46:29;;;;;;;2.60;1.17;;;;;;;14.17;64.42;100824.94;5025457;28;20156;-50
2023/04/14 00:48:55;;;;;;;1.35;1.25;;;;;;;14.16;64.52;100831.25;5025041;28;20033;-51
2023/04/14 00:51:21;;;;;;;1.85;1.40;;;;;;;14.17;64.70;100838.34;5025138;28;20033;-51
2023/04/14 00:53:48;;;;;;;1.95;1.40;;;;;;;14.16;64.44;100831.25;5025316;28;20033;-49
2023/04/14 00:56:13;;;;;;;1.67;1.00;;;;;;;14.15;64.57;100832.25;5025546;28;20391;-51
2023/04/14 00:58:40;;;;;;;1.00;0.95;;;;;;;14.14;64.50;100844.75;5025234;28;20029;-50
2023/04/14 01:01:05;;;;;;;1.63;1.40;;;;;;;14.14;64.53;100849.28;5024854;28;20037;-51
2023/04/14 01:03:31;;;;;;;1.83;1.27;;;;;;;14.14;64.74;100841.25;5024570;28;20063;-50
2023/04/14 01:05:57;;;;;;;1.20;1.10;;;;;;;14.14;64.91;100850.13;5024919;28;20029;-51
2023/04/14 01:08:23;;;;;;;2.03;1.20;;;;;;;14.14;64.29;100843.91;5024748;28;20037;-48
2023/04/14 01:10:57;;;;;;;1.70;1.60;;;;;;;14.14;64.43;100847.44;5024714;28;20471;-49
2023/04/14 01:13:42;;;;;;;1.88;1.50;;;;;;;14.14;64.52;100855.47;5024706;28;20041;-50
2023/04/14 01:16:18;;;;;;;2.22;1.20;;;;;;;14.14;64.32;100855.47;5023987;28;20026;-48
2023/04/14 01:19:14;;;;;;;2.40;1.45;;;;;;;14.14;64.70;100852.78;5023267;28;20040;-52
2023/04/14 01:21:42;;;;;;;2.50;1.20;;;;;;;14.12;64.50;100845.88;5026527;28;20033;-52
2023/04/14 01:24:13;;;;;;;1.70;1.30;;;;;;;14.12;64.42;100845.88;5024493;28;20029;-52
2023/04/14 01:26:41;;;;;;;2.50;1.30;;;;;;;14.12;64.12;100856.56;5026476;28;20038;-52
2023/04/14 01:29:30;;;;;;;2.78;1.30;;;;;;;14.11;64.63;100849.50;5024350;28;20037;-52
2023/04/14 01:32:01;;;;;;;1.33;1.20;;;;;;;14.11;63.90;100854.84;5024722;28;20037;-52
2023/04/14 01:34:51;;;;;;;2.40;1.20;;;;;;;14.13;64.26;100847.59;5024587;28;20591;-51
2023/04/14 01:37:24;;;;;;;1.20;1.10;;;;;;;14.10;64.38;100847.81;5024612;28;20065;-51
2023/04/14 01:39:54;;;;;;;2.67;1.30;;;;;;;14.09;64.41;100855.00;5024671;28;20086;-52
2023/04/14 01:42:24;;;;;;;1.67;1.38;;;;;;;14.07;64.05;100852.44;5024383;28;20052;-52
2023/04/14 01:44:55;;;;;;;2.15;1.85;;;;;;;14.08;64.01;100856.81;5024433;28;20025;-52
2023/04/14 01:47:24;;;;;;;2.60;1.40;;;;;;;14.07;64.43;100849.75;5024121;28;20109;-52
2023/04/14 01:49:52;;;;;;;2.45;1.38;;;;;;;14.06;64.21;100856.06;5023181;28;20022;-52
2023/04/14 01:52:19;;;;;;;1.80;1.42;;;;;;;14.07;64.45;100859.63;5021078;28;20034;-52
2023/04/14 01:54:47;;;;;;;1.98;1.30;;;;;;;14.05;63.75;100858.88;5021621;28;20376;-52
2023/04/14 01:57:15;;;;;;;4.38;1.45;;;;;;;14.05;63.76;100854.38;5024381;28;20424;-52
2023/04/14 01:59:41;;;;;;;1.85;1.50;;;;;;;14.04;63.90;100860.69;5023756;28;20026;-52
2023/04/14 02:02:08;;;;;;;1.90;1.25;;;;;;;14.04;64.11;100857.19;5024212;28;20467;-51
2023/04/14 02:04:36;;;;;;;2.42;1.40;;;;;;;14.04;64.42;100857.19;5023518;28;20104;-52
2023/04/14 02:07:04;;;;;;;3.15;1.50;;;;;;;14.05;63.92;100866.91;5023997;28;20044;-52
2023/04/14 02:09:31;;;;;;;2.67;1.35;;;;;;;14.03;64.32;100858.13;5023174;28;20028;-52
2023/04/14 02:11:58;;;;;;;1.50;1.40;;;;;;;14.02;64.07;100868.00;5023602;28;20041;-52
2023/04/14 02:14:23;;;;;;;1.48;1.27;;;;;;;14.02;64.04;100862.66;5022775;28;20025;-52
2023/04/14 02:16:52;;;;;;;3.22;1.30;;;;;;;14.02;63.85;100873.34;5023603;28;20026;-51
2023/04/14 02:19:19;;;;;;;1.45;1.10;;;;;;;14.02;63.80;100869.84;5023774;28;20029;-52
2023/04/14 02:21:46;;;;;;;1.83;1.30;;;;;;;14.01;63.91;100863.63;5023950;28;20498;-51
2023/04/14 02:24:12;;;;;;;2.13;1.42;;;;;;;14.00;63.52;100867.28;5023560;28;20188;-52
2023/04/14 02:26:44;;;;;;;1.58;1.30;;;;;;;14.00;64.05;100869.94;5023613;28;20108;-51
2023/04/14 02:29:11;;;;;;;;;;;;;;;14.10;63.87;100872.75;5024030;28;20084;-51
2023/04/14 02:31:42;;;;;;;2.70;1.25;;;;;;;14.02;63.97;100873.34;5021387;28;19986;-51
2023/04/14 02:34:10;;;;;;;;;;;;;;;14.10;63.79;100874.59;5023497;28;20388;-51
2023/04/14 02:36:43;;;;;;;2.13;1.20;;;;;;;14.02;63.46;100877.88;5023385;28;20425;-52
2023/04/14 02:39:16;;;;;;;3.25;1.33;;;;;;;14.01;63.96;100881.50;5023322;28;20049;-52
2023/04/14 02:41:44;;;;;;;2.83;1.30;;;;;;;13.99;63.82;100884.31;5023098;28;20029;-52
2023/04/14 02:44:19;;;;;;;1.90;1.20;;;;;;;13.99;63.61;100884.31;5023360;28;20128;-52
2023/04/14 02:47:06;;;;;;;3.22;1.55;;;;;;;14.00;64.06;100886.00;5023203;28;20460;-52
2023/04/14 02:49:35;;;;;;;2.05;1.30;;;;;;;13.98;63.88;100887.13;5022995;28;20025;-52
2023/04/14 02:52:04;;;;;;;3.42;1.30;;;;;;;13.96;63.74;100884.56;5023261;28;20471;-51
2023/04/14 02:54:34;;;;;;;1.38;1.17;;;;;;;13.96;63.69;100887.22;5023213;28;20033;-52
2023/04/14 02:57:01;;;;;;;1.92;1.17;;;;;;;13.96;63.66;100889.91;5022952;28;20029;-52
2023/04/14 02:59:28;;;;;;;1.05;0.95;;;;;;;13.95;63.35;100885.50;5022725;28;20082;-51
2023/04/14 03:01:55;;;;;;;3.65;1.23;;;;;;;13.95;63.68;100888.19;5022839;28;20048;-52
2023/04/14 03:04:22;;;;;;;1.73;1.33;;;;;;;13.95;63.47;100890.84;5022459;28;20136;-52
2023/04/14 03:06:48;;;;;;;2.20;1.25;;;;;;;13.94;63.77;100885.66;5023189;28;20041;-51
2023/04/14 03:09:15;;;;;;;1.60;1.40;;;;;;;13.94;63.84;100886.50;5022621;28;20026;-51
2023/04/14 03:11:43;;;;;;;1.60;1.33;;;;;;;13.94;63.79;100897.19;5022959;28;20037;-51
2023/04/14 03:14:09;;;;;;;2.13;1.30;;;;;;;13.93;63.52;100894.63;5022778;28;20026;-52
2023/04/14 03:16:38;;;;;;;1.67;1.10;;;;;;;13.92;63.26;100904.50;5022663;28;20038;-52
2023/04/14 03:19:06;;;;;;;2.28;1.42;;;;;;;13.92;63.36;100900.94;5022480;28;20040;-51
2023/04/14 03:21:33;;;;;;;1.27;1.17;;;;;;;13.92;63.51;100892.91;5022122;28;20026;-52
2023/04/14 03:23:59;;;;;;;2.33;1.50;;;;;;;13.91;63.62;100900.09;5019788;28;20081;-52
2023/04/14 03:26:28;;;;;;;1.67;1.17;;;;;;;13.91;63.41;100889.41;5022723;28;20034;-51
2023/04/14 03:28:55;;;;;;;1.92;1.48;;;;;;;13.90;63.80;100890.38;5022690;28;20104;-52
2023/04/14 03:31:29;;;;;;;2.22;1.65;;;;;;;13.91;63.33;100893.91;5022914;28;20480;-51
2023/04/14 03:33:58;;;;;;;1.80;1.02;;;;;;;13.89;63.33;100888.66;5022357;28;20376;-51
2023/04/14 03:36:25;;;;;;;2.13;1.40;;;;;;;13.90;63.25;100893.06;5021493;28;20337;-53
2023/04/14 03:38:54;;;;;;;1.88;1.13;;;;;;;13.89;63.14;100897.53;5023119;28;20025;-51
2023/04/14 03:41:21;;;;;;;2.67;1.52;;;;;;;13.88;63.43;100898.53;5023130;28;20033;-50
2023/04/14 03:43:53;;;;;;;1.85;1.30;;;;;;;13.89;63.35;100894.00;5022706;28;20033;-50
2023/04/14 03:46:20;;;;;;;1.35;1.25;;;;;;;13.89;63.11;100894.00;5022763;28;20039;-51
2023/04/14 03:48:49;;;;;;;1.70;1.33;;;;;;;13.88;63.56;100900.34;5027985;28;20103;-51
2023/04/14 03:51:15;;;;;;;2.28;1.33;;;;;;;13.88;63.53;100908.38;5022547;28;20044;-50
2023/04/14 03:53:44;;;;;;;1.23;1.13;;;;;;;13.88;63.67;100903.88;5022391;28;20033;-52
2023/04/14 03:56:13;;;;;;;1.50;1.20;;;;;;;13.87;63.30;100902.16;5022546;28;20553;-52
2023/04/14 03:58:41;;;;;;;1.90;1.30;;;;;;;13.86;63.59;100902.31;5024016;28;20461;-51
2023/04/14 04:01:07;;;;;;;1.95;1.35;;;;;;;13.87;63.27;100895.97;5022161;28;20426;-52
2023/04/14 04:03:34;;;;;;;2.20;1.13;;;;;;;13.85;63.07;100893.41;5021766;28;20050;-52
2023/04/14 04:06:01;;;;;;;1.60;1.50;;;;;;;13.85;63.34;100898.75;5023936;28;20033;-52
2023/04/14 04:08:28;;;;;;;1.23;1.13;;;;;;;13.84;62.88;100896.19;5023742;28;20454;-52
2023/04/14 04:10:56;;;;;;;1.65;1.17;;;;;;;13.84;63.08;100902.41;5022038;28;20029;-51
2023/04/14 04:13:23;;;;;;;1.25;1.00;;;;;;;13.84;63.15;100905.09;5022516;28;20033;-51
2023/04/14 04:15:50;;;;;;;1.25;1.15;;;;;;;13.83;63.30;100911.41;5024450;28;20107;-52
2023/04/14 04:18:17;;;;;;;2.70;1.73;;;;;;;13.83;63.34;100907.88;5022241;28;20052;-51
2023/04/14 04:20:45;;;;;;;1.70;1.17;;;;;;;13.83;62.77;100907.88;5022101;28;20026;-52
2023/04/14 04:23:11;;;;;;;2.40;1.30;;;;;;;13.83;62.95;100910.56;5022138;28;20041;-52
2023/04/14 04:25:38;;;;;;;1.33;1.23;;;;;;;13.83;62.94;100913.22;5020359;28;20116;-52
2023/04/14 04:28:03;;;;;;;2.58;1.42;;;;;;;13.83;63.11;100908.72;5021820;28;20090;-52
2023/04/14 04:30:31;;;;;;;1.42;1.10;;;;;;;13.82;62.98;100914.19;5022124;28;20030;-51
2023/04/14 04:32:56;;;;;;;1.67;1.00;;;;;;;13.83;62.76;100921.25;5025386;28;20058;-51
2023/04/14 04:35:23;;;;;;;2.30;1.48;;;;;;;13.83;63.10;100922.09;5025944;28;20037;-51
2023/04/14 04:37:49;;;;;;;2.40;1.40;;;;;;;13.83;63.06;100921.25;5025924;28;20041;-51
2023/04/14 04:40:15;;;;;;;1.35;1.10;;;;;;;13.82;63.39;100922.22;5025466;28;20037;-51
2023/04/14 04:42:41;;;;;;;1.50;1.17;;;;;;;13.82;63.29;100919.53;5025243;28;20434;-52
2023/04/14 04:45:07;;;;;;;2.53;1.02;;;;;;;13.80;62.96;100921.47;5025217;28;20120;-52
2023/04/14 04:47:33;;;;;;;1.60;1.23;;;;;;;13.80;63.29;100926.84;5029048;28;20025;-52
2023/04/14 04:49:58;;;;;;;1.85;1.02;;;;;;;13.80;63.28;100918.81;5027925;28;20029;-52
2023/04/14 04:52:24;;;;;;;1.80;1.30;;;;;;;13.80;63.07;100918.81;5027956;28;20508;-51
2023/04/14 04:54:51;;;;;;;2.33;1.30;;;;;;;13.80;62.63;100917.00;5028686;28;20061;-51
2023/04/14 04:57:19;;;;;;;1.33;0.90;;;;;;;13.78;62.73;100918.91;5025764;28;20072;-52
2023/04/14 04:59:45;;;;;;;1.10;1.00;;;;;;;13.78;62.74;100918.91;5025149;28;20041;-51
2023/04/14 05:02:11;;;;;;;1.05;0.95;;;;;;;13.78;62.87;100910.88;5024912;28;20038;-51
2023/04/14 05:04:36;;;;;;;1.90;1.00;;;;;;;13.78;63.01;100907.38;5028431;28;20111;-52
2023/04/14 05:07:02;;;;;;;1.10;1.00;;;;;;;13.78;62.95;100910.88;5028324;28;20083;-51
2023/04/14 05:09:27;;;;;;;1.35;1.20;;;;;;;13.78;62.94;100910.03;5023937;28;20028;-50
2023/04/14 05:11:53;;;;;;;1.55;1.10;;;;;;;13.77;62.73;100911.03;5025397;28;20034;-53
2023/04/14 05:14:18;;;;;;;2.08;1.02;;;;;;;13.78;62.77;100918.06;5024852;28;20502;-52
2023/04/14 05:16:43;;;;;;;1.40;1.10;;;;;;;13.76;63.04;100920.84;5023592;28;20078;-52
2023/04/14 05:19:09;;;;;;;1.95;1.25;;;;;;;13.76;62.98;100914.66;5024495;28;20041;-48
2023/04/14 05:21:34;;;;;;;2.67;1.30;;;;;;;13.76;62.90;100920.00;5024913;28;20042;-52
2023/04/14 05:24:00;;;;;;;2.63;1.20;;;;;;;13.76;62.54;100920.84;5024654;28;20034;-50
2023/04/14 05:26:25;;;;;;;2.33;1.40;;;;;;;13.76;62.49;100914.66;5025302;28;20049;-51
2023/04/14 05:28:51;;;;;;;2.47;1.02;;;;;;;13.75;62.46;100918.31;5024025;28;20037;-50
2023/04/14 05:31:16;;;;;;;1.45;1.02;;;;;;;13.75;62.56;100912.97;5028664;28;20446;-52
2023/04/14 05:33:42;;;;;;;2.35;1.65;;;;;;;13.73;62.27;100913.09;5025993;28;20021;-52
2023/04/14 05:36:07;;;;;;;1.40;1.05;;;;;;;13.73;62.80;100907.72;5024393;28;20060;-52
2023/04/14 05:38:36;;;;;;;1.77;1.10;;;;;;;13.73;62.71;100909.53;5025558;28;20031;-52
2023/04/14 05:41:01;;;;;;;2.33;1.10;;;;;;;13.73;62.67;100912.22;5030249;28;20045;-51
2023/04/14 05:43:27;;;;;;;1.63;1.23;;;;;;;13.72;62.42;100910.53;5030918;28;20506;-51
2023/04/14 05:45:52;;;;;;;2.20;1.20;;;;;;;13.73;62.25;100910.41;5030842;28;20482;-49
2023/04/14 05:48:18;;;;;;;1.20;1.10;;;;;;;13.72;62.43;100916.72;5029671;28;20021;-52
2023/04/14 05:50:43;;;;;;;2.00;1.20;;;;;;;13.71;62.53;100908.81;5036083;28;20022;-49
2023/04/14 05:53:10;;;;;;;1.20;1.10;;;;;;;13.71;62.41;100911.47;5041552;28;20028;-53
2023/04/14 05:55:36;;;;;;;1.55;1.02;;;;;;;13.71;62.51;100908.81;5034123;28;20068;-51
2023/04/14 05:58:01;;;;;;;2.13;1.52;;;;;;;13.70;62.25;100910.63;5029817;28;20419;-51
2023/04/14 06:00:27;;;;;;;1.20;0.90;;;;;;;13.69;62.23;100911.63;5038187;28;20025;-51
2023/04/14 06:02:52;;;;;;;1.02;0.90;;;;;;;13.69;62.44;100908.94;5035027;28;20053;-52
2023/04/14 06:05:18;;;;;;;1.60;1.13;;;;;;;13.69;62.28;100908.94;5030113;28;20411;-51
2023/04/14 06:07:43;;;;;;;1.70;1.08;;;;;;;13.69;62.54;100909.78;5029524;28;20486;-53
2023/04/14 06:10:09;;;;;;;2.33;1.10;;;;;;;13.69;62.48;100909.78;5030918;28;20034;-52
2023/04/14 06:12:36;;;;;;;1.40;1.20;;;;;;;13.68;62.04;100912.56;5025372;28;20124;-51
2023/04/14 06:15:03;;;;;;;2.63;1.30;;;;;;;13.68;62.01;100910.75;5029960;28;20072;-51
2023/04/14 06:17:28;;;;;;;1.33;0.98;;;;;;;13.67;62.33;100911.72;5031296;28;20041;-53
2023/04/14 06:19:53;;;;;;;1.48;1.30;;;;;;;13.68;62.24;100908.06;5027667;28;20525;-52
2023/04/14 06:22:19;;;;;;;3.28;1.25;;;;;;;13.67;62.45;100906.38;5029455;28;20060;-51
2023/04/14 06:24:45;;;;;;;3.30;1.33;;;;;;;13.67;62.28;100906.38;5030751;28;20032;-52
2023/04/14 06:27:10;;;;;;;1.77;1.30;;;;;;;13.66;62.28;100904.66;5029899;28;20033;-51
2023/04/14 06:29:36;;;;;;;3.17;1.33;;;;;;;13.67;62.11;100905.53;5030709;28;20028;-51
2023/04/14 06:32:01;;;;;;;1.27;1.17;;;;;;;13.67;61.99;100911.72;5029561;28;20040;-51
2023/04/14 06:34:26;;;;;;;1.67;1.10;;;;;;;13.66;62.10;100909.16;5030679;28;20029;-50
2023/04/14 06:36:52;;;;;;;1.40;1.23;;;;;;;13.65;62.16;100902.97;5030395;28;20029;-50
2023/04/14 06:39:20;;;;;;;1.65;1.00;;;;;;;13.65;62.27;100897.63;5029940;28;20033;-52
2023/04/14 06:41:46;;;;;;;2.38;1.40;;;;;;;13.65;62.40;100902.97;5030297;28;20387;-51
2023/04/14 06:44:11;;;;;;;1.40;1.30;;;;;;;13.66;62.28;100904.66;5030614;28;20082;-52
2023/04/14 06:46:36;;;;;;;1.20;1.10;;;;;;;13.66;62.51;100901.97;5030740;28;20098;-51
2023/04/14 06:49:02;;;;;;;2.83;1.27;;;;;;;13.65;62.70;100902.97;5029433;28;20144;-51
2023/04/14 06:51:28;;;;;;;1.50;1.15;;;;;;;13.65;62.52;100900.28;5027856;28;20494;-53
2023/04/14 06:53:54;;;;;;;1.00;0.90;;;;;;;13.65;62.58;100897.63;5022957;28;20063;-52
2023/04/14 06:56:19;;;;;;;1.45;1.05;;;;;;;13.65;62.41;100900.28;5029963;28;20033;-52
2023/04/14 13:43:48;;;;;;;5.53;1.52;;;;;;;13.62;51.01;100651.72;6221146;22;1428751;-47
2023/04/14 13:46:14;;;;;;;2.58;1.10;;;;;;;13.65;51.34;100661.31;6281905;22;20488;-47
2023/04/14 13:48:42;;;;;;;2.58;1.17;;;;;;;13.69;51.18;100646.72;6282632;22;20018;-47
2023/04/14 13:51:07;;;;;;;1.92;0.90;;;;;;;13.73;50.61;100652.66;6282916;22;20011;-47
2023/04/14 13:53:33;;;;;;;4.18;1.50;;;;;;;13.75;50.62;100638.19;6281913;22;20336;-49
2023/04/14 13:55:58;;;;;;;1.80;1.10;;;;;;;13.78;50.79;100637.94;6281793;22;20038;-45
2023/04/14 14:35:20;;;;;;;3.47;1.13;;;;;;;14.19;49.98;100611.47;6342879;22;20029;-45
2023/04/14 14:37:46;;;;;;;8.27;0.90;;;;;;;14.20;50.32;100607.78;6344488;22;20396;-46
2023/04/14 14:44:07;;;;;;;3.65;1.00;;;;;;;14.26;49.93;100607.28;4940888;28;4196342;-56
2023/04/14 14:46:32;;;;;;;3.15;0.90;;;;;;;14.30;49.67;100607.88;5079675;28;20071;-56
2023/04/14 14:48:58;;;;;;;2.92;1.15;;;;;;;14.30;49.47;100608.75;5078900;28;20024;-56
2023/04/14 14:51:26;;;;;;;3.50;0.95;;;;;;;14.31;49.74;100599.72;5078537;28;20053;-57
2023/04/14 14:53:51;;;;;;;2.05;0.82;;;;;;;14.31;50.03;100599.72;5081942;28;20484;-57
2023/04/14 14:56:17;;;;;;;1.27;0.75;;;;;;;14.33;50.49;100603.09;5079624;28;20032;-57
2023/04/14 14:58:42;;;;;;;2.97;1.08;;;;;;;14.33;50.29;100603.09;5079834;28;20082;-56
2023/04/14 15:01:08;;;;;;;2.60;0.98;;;;;;;14.34;50.01;100601.31;5079269;28;20059;-57
2023/04/14 15:03:33;;;;;;;5.55;1.25;;;;;;;14.33;50.50;100592.38;5079430;28;20032;-56
2023/04/14 15:05:59;;;;;;;4.22;1.00;;;;;;;14.35;50.66;100594.94;5079730;28;20024;-57
2023/04/14 15:08:25;;;;;;;3.20;0.95;;;;;;;14.35;50.25;100598.47;5084038;28;20502;-57
2023/04/14 15:10:50;;;;;;;3.33;0.90;;;;;;;14.36;50.01;100602.03;5085924;28;20078;-57
2023/04/14 15:13:16;;;;;;;6.55;1.10;;;;;;;14.35;49.56;100598.47;5080476;28;20431;-57
2023/04/14 15:15:42;;;;;;;0.90;0.80;;;;;;;14.36;49.61;100600.19;5084590;28;20024;-57
2023/04/14 15:18:07;;;;;;;3.30;0.80;;;;;;;14.36;49.44;100592.16;5082337;28;20027;-57
2023/04/14 15:20:32;;;;;;;2.92;0.98;;;;;;;14.38;49.36;100598.22;5084202;28;20159;-57
2023/04/14 15:22:58;;;;;;;5.25;1.00;;;;;;;14.39;49.25;100589.22;5084095;28;20028;-57
2023/04/14 15:25:23;;;;;;;3.63;0.90;;;;;;;14.40;49.20;100592.75;5077997;28;20067;-56
2023/04/14 15:27:48;;;;;;;1.98;0.82;;;;;;;14.42;49.34;100596.13;5079020;28;20043;-57
2023/04/14 15:30:14;;;;;;;1.27;0.93;;;;;;;14.43;49.41;100597.81;5078852;28;20477;-57
2023/04/14 15:32:40;;;;;;;1.08;0.65;;;;;;;14.44;49.75;100605.72;5078843;28;20041;-57
2023/04/14 15:35:06;;;;;;;1.73;0.73;;;;;;;14.45;49.82;100601.25;5078771;28;20025;-57
2023/04/14 15:37:31;;;;;;;2.97;0.77;;;;;;;14.44;49.95;100600.38;5078832;28;20500;-57
2023/04/14 15:39:56;;;;;;;1.20;0.68;;;;;;;14.44;50.32;100603.06;5077042;28;20033;-57
2023/04/14 15:42:22;;;;;;;3.40;0.93;;;;;;;14.44;49.92;100603.06;5081898;28;20042;-57
2023/04/14 15:44:49;;;;;;;2.28;1.17;;;;;;;14.45;50.72;100607.44;5077162;28;20072;-57
2023/04/14 15:47:16;;;;;;;4.45;0.80;;;;;;;14.45;50.28;100606.59;5074437;28;20043;-57
2023/04/14 15:49:41;;;;;;;3.50;0.90;;;;;;;14.44;50.62;100616.44;5078035;28;20090;-56
2023/04/14 15:52:07;;;;;;;3.13;1.00;;;;;;;14.46;50.42;100616.31;5064480;28;20033;-57
2023/04/14 15:54:32;;;;;;;2.15;0.90;;;;;;;14.45;50.92;100618.16;5063886;28;20115;-57
2023/04/14 15:56:58;;;;;;;1.45;0.63;;;;;;;14.45;50.72;100612.81;5067805;28;20040;-57
2023/04/14 15:59:23;;;;;;;3.13;1.08;;;;;;;14.46;50.66;100621.69;5069622;28;20032;-56
2023/04/14 16:01:49;;;;;;;2.55;0.90;;;;;;;14.46;50.75;100609.13;5064793;28;20033;-57
2023/04/14 16:04:14;;;;;;;1.80;0.60;;;;;;;14.46;50.82;100611.81;5069985;28;20032;-56
2023/04/14 16:06:40;;;;;;;1.35;0.88;;;;;;;14.47;51.31;100610.84;5069193;28;20036;-57
2023/04/14 16:09:05;;;;;;;2.90;0.73;;;;;;;14.48;50.95;100611.69;5067821;28;20048;-57
2023/04/14 16:11:32;;;;;;;2.60;1.05;;;;;;;14.48;51.27;100606.34;5070883;28;20104;-57
2023/04/14 16:13:58;;;;;;;3.63;1.60;;;;;;;14.48;51.68;100609.84;5068411;28;20070;-57
2023/04/14 16:16:23;;;;;;;11.98;1.17;;;;;;;14.49;51.35;100608.03;5069171;28;20041;-57
2023/04/14 16:18:49;;;;;;;3.22;0.85;;;;;;;14.50;51.66;100607.06;5065266;28;20037;-57
2023/04/14 16:21:15;;;;;;;2.58;0.85;;;;;;;14.51;51.94;100606.09;5067926;28;20067;-57
2023/04/14 16:23:43;;;;;;;2.00;0.80;;;;;;;14.52;52.10;100606.94;5069460;28;20024;-57
2023/04/14 16:26:08;;;;;;;4.32;1.13;;;;;;;14.52;52.61;100606.94;5068506;28;20034;-57
2023/04/14 16:28:34;;;;;;;2.08;1.15;;;;;;;14.53;52.53;100611.31;5066674;28;20020;-57
2023/04/14 16:31:01;;;;;;;2.80;1.00;;;;;;;14.53;52.78;100606.81;5066903;28;20557;-57
2023/04/14 16:33:27;;;;;;;3.47;0.95;;;;;;;14.53;52.91;100609.47;5067387;28;20045;-57
2023/04/14 16:35:55;;;;;;;3.20;0.95;;;;;;;14.54;52.78;100610.31;5067548;28;20497;-57
2023/04/14 16:38:21;;;;;;;2.88;0.95;;;;;;;14.54;52.63;100602.28;5065474;28;20033;-57
2023/04/14 16:40:55;;;;;;;1.17;0.75;;;;;;;14.55;52.54;100609.34;5069116;28;20081;-57
2023/04/14 16:43:20;;;;;;;3.05;0.90;;;;;;;14.56;52.78;100605.69;5061360;28;20410;-57
2023/04/14 16:45:45;;;;;;;4.47;1.23;;;;;;;14.56;52.84;100608.34;5059854;28;20041;-57
2023/04/14 16:48:11;;;;;;;2.33;1.08;;;;;;;14.57;52.63;100604.75;5064221;28;20056;-57
2023/04/14 16:50:36;;;;;;;2.63;1.05;;;;;;;14.57;52.80;100602.06;5063939;28;20032;-57
2023/04/14 16:53:02;;;;;;;3.85;1.33;;;;;;;14.57;52.54;100602.06;5064235;28;20144;-57
2023/04/14 16:55:27;;;;;;;2.58;0.80;;;;;;;14.57;52.68;100602.91;5071863;28;20069;-57
2023/04/14 16:57:53;;;;;;;1.63;0.75;;;;;;;14.58;52.15;100612.66;5060902;28;20492;-57
2023/04/14 17:00:20;;;;;;;2.03;0.90;;;;;;;14.57;52.36;100605.59;5063914;28;20405;-57
2023/04/14 17:02:45;;;;;;;2.30;1.13;;;;;;;14.57;52.03;100604.75;5063822;28;20032;-57
2023/04/14 17:05:14;;;;;;;4.88;0.98;;;;;;;14.57;52.08;100610.94;5059831;28;20037;-57
2023/04/14 17:07:40;;;;;;;2.90;1.13;;;;;;;14.57;52.50;100605.59;5063474;28;20107;-57
2023/04/14 17:10:06;;;;;;;1.13;0.85;;;;;;;14.58;52.14;100606.44;5063855;28;20116;-57
2023/04/14 17:12:31;;;;;;;1.23;1.08;;;;;;;14.58;52.51;100614.47;5068063;28;20021;-57
2023/04/14 17:14:59;;;;;;;1.60;1.00;;;;;;;14.58;52.58;100606.44;5068627;28;20078;-57
2023/04/14 17:17:24;;;;;;;2.75;1.08;;;;;;;14.59;52.48;100616.19;5064842;28;20535;-57
2023/04/14 17:19:50;;;;;;;2.83;1.23;;;;;;;14.59;52.72;100610.81;5063146;28;20060;-56
2023/04/14 17:22:15;;;;;;;1.55;0.80;;;;;;;14.58;52.55;100609.09;5063093;28;20036;-57
2023/04/14 17:24:41;;;;;;;3.05;1.10;;;;;;;14.59;52.79;100619.69;5065544;28;20029;-57
2023/04/14 17:27:07;;;;;;;3.22;0.98;;;;;;;14.59;52.83;100614.34;5063223;28;20626;-57
2023/04/14 17:29:33;;;;;;;5.78;0.90;;;;;;;14.59;53.12;100613.50;5060519;28;20025;-57
2023/04/14 17:31:59;;;;;;;1.67;0.95;;;;;;;14.59;52.99;100621.53;5066623;28;20385;-56
2023/04/14 17:34:25;;;;;;;3.63;1.20;;;;;;;14.59;53.10;100624.22;5063540;28;20078;-57
2023/04/14 17:36:51;;;;;;;4.40;1.25;;;;;;;14.59;52.81;100619.69;5062994;28;20043;-57
2023/04/14 17:39:20;;;;;;;3.58;1.17;;;;;;;14.59;53.21;100624.22;5066457;28;20119;-57
2023/04/14 17:41:46;;;;;;;2.80;0.98;;;;;;;14.59;53.16;100622.38;5063381;28;20485;-57
2023/04/14 17:44:12;;;;;;;1.98;1.00;;;;;;;14.58;53.29;100623.38;5062833;28;20061;-57
2023/04/14 17:46:38;;;;;;;2.95;1.10;;;;;;;14.59;53.13;100624.22;5062995;28;20036;-57
2023/04/14 17:49:03;;;;;;;5.47;0.98;;;;;;;14.60;52.95;100626.78;5062796;28;20033;-57
2023/04/14 17:51:30;;;;;;;2.92;1.15;;;;;;;14.61;52.77;100624.94;5063662;28;20039;-56
2023/04/14 17:53:56;;;;;;;4.70;1.17;;;;;;;14.60;52.88;100625.91;5063096;28;20029;-57
2023/04/14 17:56:23;;;;;;;1.67;0.98;;;;;;;14.60;52.82;100625.91;5061004;28;20032;-56
2023/04/14 17:58:50;;;;;;;2.92;1.00;;;;;;;14.61;52.94;100627.63;5060834;28;20462;-57
2023/04/14 18:01:16;;;;;;;3.85;1.13;;;;;;;14.60;53.39;100631.25;5062966;28;20021;-57
2023/04/14 18:03:41;;;;;;;2.55;0.85;;;;;;;14.60;52.89;100623.22;5063120;28;20446;-57
2023/04/14 18:06:08;;;;;;;4.53;1.40;;;;;;;14.61;53.36;100624.94;5062752;28;20443;-56
2023/04/14 18:08:33;;;;;;;3.22;1.23;;;;;;;14.60;53.06;100628.59;5062588;28;20094;-57
2023/04/14 18:10:58;;;;;;;3.78;1.00;;;;;;;14.60;53.07;100626.78;5062730;28;20489;-57
2023/04/14 18:13:27;;;;;;;3.83;1.00;;;;;;;14.61;52.98;100624.94;5061635;28;20037;-57
2023/04/14 18:15:52;;;;;;;2.55;1.17;;;;;;;14.60;52.75;100636.63;5063071;28;20105;-57
2023/04/14 18:18:18;;;;;;;5.43;1.00;;;;;;;14.62;53.22;100631.97;5061929;28;20486;-57
2023/04/14 18:20:45;;;;;;;5.50;1.95;;;;;;;14.61;53.05;100641.00;5061185;28;20041;-57
2023/04/14 18:23:11;;;;;;;5.25;1.55;;;;;;;14.60;52.59;100639.31;5065799;28;20029;-57
2023/04/14 18:25:36;;;;;;;3.38;1.42;;;;;;;14.61;53.13;100643.69;5054815;28;20040;-57
2023/04/14 18:28:02;;;;;;;5.47;1.25;;;;;;;14.62;53.25;100645.38;5058267;28;20086;-57
2023/04/14 18:30:28;;;;;;;4.93;1.17;;;;;;;14.62;53.29;100640.03;5061254;28;20041;-57
2023/04/14 18:32:54;;;;;;;3.70;1.48;;;;;;;14.61;53.35;100644.53;5057929;28;20041;-57
2023/04/14 18:35:19;;;;;;;0.98;0.80;;;;;;;14.62;53.13;100645.38;5060511;28;20083;-57
2023/04/14 18:37:45;;;;;;;3.70;1.30;;;;;;;14.61;53.11;100644.53;5057338;28;20063;-57
2023/04/14 18:40:11;;;;;;;3.72;1.40;;;;;;;14.61;53.55;100652.56;5056931;28;20021;-57
2023/04/14 18:42:37;;;;;;;4.50;1.30;;;;;;;14.62;53.31;100648.94;5060556;28;20389;-55
2023/04/14 18:45:03;;;;;;;2.63;1.20;;;;;;;14.60;53.73;100656.25;5057226;28;20482;-57
2023/04/14 18:47:28;;;;;;;3.47;1.30;;;;;;;14.62;53.53;100656.97;5064279;28;20041;-57
2023/04/14 18:49:54;;;;;;;1.73;1.20;;;;;;;14.63;53.53;100655.13;5057773;28;20028;-57